createdAt,value
2022-09-10T00:00:08.207Z,15.71
2022-09-10T00:02:36.362Z,15.70
2022-09-10T00:05:04.125Z,15.72
2022-09-10T00:07:32.978Z,15.75
2022-09-10T00:10:00.561Z,15.82
2022-09-10T00:12:28.123Z,15.88
2022-09-10T00:14:55.873Z,15.90
2022-09-10T00:17:24.272Z,15.94
2022-09-10T00:19:51.802Z,16.01
2022-09-10T00:22:19.283Z,16.08
2022-09-10T00:24:48.139Z,16.17
2022-09-10T00:27:15.925Z,16.25
2022-09-10T00:29:43.696Z,16.33
2022-09-10T00:32:11.176Z,16.41
2022-09-10T00:34:38.747Z,16.45
2022-09-10T00:37:06.392Z,16.50
2022-09-10T00:39:34.012Z,16.52
2022-09-10T00:42:02.971Z,16.49
2022-09-10T00:44:56.905Z,16.41
2022-09-10T00:47:28.936Z,16.31
2022-09-10T00:50:01.906Z,16.23
2022-09-10T00:52:29.786Z,16.13
2022-09-10T00:54:57.616Z,16.06
2022-09-10T00:57:29.140Z,16.01
2022-09-10T01:00:01.280Z,15.97
2022-09-10T01:02:29.298Z,15.93
2022-09-10T01:04:58.894Z,15.90
2022-09-10T01:07:29.033Z,15.92
2022-09-10T01:09:58.918Z,15.92
2022-09-10T01:12:46.384Z,15.89
2022-09-10T01:15:25.449Z,15.85
2022-09-10T01:18:11.333Z,15.84
2022-09-10T01:21:00.757Z,15.82
2022-09-10T01:23:57.460Z,15.77
2022-09-10T01:26:49.382Z,15.71
2022-09-10T01:29:24.947Z,15.71
2022-09-10T01:31:56.737Z,15.68
2022-09-10T01:34:30.468Z,15.66
2022-09-10T01:37:04.965Z,15.63
2022-09-10T01:39:34.084Z,15.62
2022-09-10T01:42:01.905Z,15.61
2022-09-10T01:44:48.131Z,15.59
2022-09-10T01:47:25.513Z,15.59
2022-09-10T01:50:10.042Z,15.55
2022-09-10T01:52:46.588Z,15.51
2022-09-10T01:55:27.255Z,15.47
2022-09-10T01:58:00.100Z,15.48
2022-09-10T02:00:29.216Z,15.49
2022-09-10T02:03:00.707Z,15.52
2022-09-10T02:05:30.781Z,15.54
2022-09-10T02:08:02.340Z,15.54
2022-09-10T02:10:30.080Z,15.55
2022-09-10T02:12:57.699Z,15.56
2022-09-10T02:15:28.685Z,15.54
2022-09-10T02:17:58.888Z,15.53
2022-09-10T02:20:26.661Z,15.53
2022-09-10T02:22:59.162Z,15.57
2022-09-10T02:25:26.948Z,15.61
2022-09-10T02:27:54.963Z,15.57
2022-09-10T02:30:24.796Z,15.55
2022-09-10T02:32:52.323Z,15.53
2022-09-10T02:35:21.154Z,15.50
2022-09-10T02:37:50.577Z,15.53
2022-09-10T02:40:19.498Z,15.58
2022-09-10T02:42:47.503Z,15.60
2022-09-10T02:45:15.328Z,15.60
2022-09-10T02:47:43.088Z,15.61
2022-09-10T02:50:11.672Z,15.62
2022-09-10T02:52:40.555Z,15.62
2022-09-10T02:55:08.843Z,15.61
2022-09-10T02:57:36.358Z,15.59
2022-09-10T03:00:04.806Z,15.62
2022-09-10T03:02:32.369Z,15.72
2022-09-10T03:05:00.328Z,15.79
2022-09-10T03:07:27.844Z,15.79
2022-09-10T03:09:56.765Z,15.72
2022-09-10T03:12:24.296Z,15.66
2022-09-10T03:14:52.030Z,15.61
2022-09-10T03:17:19.541Z,15.58
2022-09-10T03:19:47.090Z,15.55
2022-09-10T03:22:14.618Z,15.52
2022-09-10T03:24:43.123Z,15.52
2022-09-10T03:27:13.979Z,15.52
2022-09-10T03:29:41.465Z,15.56
2022-09-10T03:32:09.115Z,15.57
2022-09-10T03:34:36.635Z,15.52
2022-09-10T03:37:04.346Z,15.52
2022-09-10T03:39:32.061Z,15.50
2022-09-10T03:41:59.676Z,15.48
2022-09-10T03:44:28.463Z,15.42
2022-09-10T03:46:55.963Z,15.42
2022-09-10T03:49:23.611Z,15.45
2022-09-10T03:51:51.157Z,15.51
2022-09-10T03:54:19.266Z,15.55
2022-09-10T03:56:46.869Z,15.56
2022-09-10T03:59:14.882Z,15.53
2022-09-10T04:01:43.761Z,15.49
2022-09-10T04:04:11.300Z,15.47
2022-09-10T04:06:40.198Z,15.44
2022-09-10T04:09:07.884Z,15.45
2022-09-10T04:11:35.922Z,15.45
2022-09-10T04:14:03.442Z,15.44
2022-09-10T04:16:32.524Z,15.42
2022-09-10T04:19:01.440Z,15.39
2022-09-10T04:21:28.981Z,15.33
2022-09-10T04:23:56.992Z,15.29
2022-09-10T04:26:24.767Z,15.25
2022-09-10T04:28:52.553Z,15.23
2022-09-10T04:31:20.477Z,15.20
2022-09-10T04:33:49.037Z,15.18
2022-09-10T04:36:17.980Z,15.16
2022-09-10T04:38:45.563Z,15.16
2022-09-10T04:41:15.463Z,15.18
2022-09-10T04:43:43.614Z,15.20
2022-09-10T04:46:11.368Z,15.24
2022-09-10T04:48:39.014Z,15.22
2022-09-10T04:51:16.218Z,15.16
2022-09-10T04:53:47.018Z,15.10
2022-09-10T04:56:14.942Z,15.09
2022-09-10T04:58:44.191Z,15.13
2022-09-10T05:01:12.048Z,15.19
2022-09-10T05:03:39.755Z,15.19
2022-09-10T05:06:07.575Z,15.16
2022-09-10T05:08:36.560Z,15.11
2022-09-10T05:11:05.527Z,15.08
2022-09-10T05:13:33.111Z,15.08
2022-09-10T05:16:01.626Z,15.09
2022-09-10T05:18:29.164Z,15.12
2022-09-10T05:20:56.628Z,15.12
2022-09-10T05:23:24.204Z,15.14
2022-09-10T05:25:51.736Z,15.14
2022-09-10T05:28:21.916Z,15.11
2022-09-10T05:30:51.689Z,15.12
2022-09-10T05:33:19.596Z,15.11
2022-09-10T05:35:51.596Z,15.09
2022-09-10T05:38:19.760Z,15.09
2022-09-10T05:40:48.126Z,15.11
2022-09-10T05:43:15.608Z,15.10
2022-09-10T06:06:35.830Z,15.25
2022-09-10T06:09:03.478Z,15.26
2022-09-10T06:11:31.490Z,15.26
2022-09-10T06:13:59.121Z,15.27
2022-09-10T06:16:26.858Z,15.28
2022-09-10T06:48:40.515Z,15.64
2022-09-10T06:51:13.097Z,15.68
2022-09-10T07:00:33.586Z,15.69
2022-09-10T07:03:01.200Z,15.68
2022-09-10T07:05:33.384Z,15.72
2022-09-10T07:08:02.098Z,15.77
2022-09-10T07:10:31.494Z,15.85
2022-09-10T07:30:10.118Z,16.14
2022-09-10T07:54:26.310Z,16.31
2022-09-10T08:40:44.841Z,17.49
2022-09-10T08:43:15.439Z,17.53
2022-09-10T08:45:49.403Z,17.59
2022-09-10T08:48:20.237Z,17.61
2022-09-10T08:50:54.390Z,17.64
2022-09-10T08:53:27.769Z,17.69
2022-09-10T08:56:02.918Z,17.70
2022-09-10T08:58:41.052Z,17.74
2022-09-10T09:01:15.342Z,17.89
2022-09-10T09:03:46.049Z,18.13
2022-09-10T09:06:25.196Z,18.42
2022-09-10T09:08:54.296Z,18.67
2022-09-10T09:11:34.357Z,18.82
2022-09-10T09:14:13.950Z,18.89
2022-09-10T09:16:59.886Z,18.98
2022-09-10T09:19:33.975Z,19.26
2022-09-10T09:22:08.074Z,19.59
2022-09-10T09:24:48.448Z,19.87
2022-09-10T09:27:20.151Z,20.07
2022-09-10T09:29:53.102Z,20.05
2022-09-10T09:32:22.630Z,20.02
2022-09-10T09:34:54.396Z,20.06
2022-09-10T09:37:25.675Z,20.09
2022-09-10T09:40:06.403Z,20.36
2022-09-10T09:42:43.046Z,21.06
2022-09-10T09:45:23.326Z,21.56
2022-09-10T09:47:51.482Z,21.87
2022-09-10T09:50:19.423Z,21.92
2022-09-10T09:52:47.809Z,21.87
2022-09-10T09:55:27.578Z,21.81
2022-09-10T09:58:33.771Z,22.05
2022-09-10T10:01:20.716Z,21.93
2022-09-10T10:03:58.752Z,21.71
2022-09-10T10:06:29.496Z,21.50
2022-09-10T10:09:01.007Z,21.44
2022-09-10T10:11:57.793Z,21.69
2022-09-10T10:14:36.493Z,21.94
2022-09-10T10:17:21.694Z,22.00
2022-09-10T10:19:59.672Z,22.02
2022-09-10T10:22:30.062Z,21.99
2022-09-10T10:24:57.678Z,21.98
2022-09-10T10:27:32.793Z,21.85
2022-09-10T10:30:06.073Z,21.80
2022-09-10T10:32:41.650Z,21.72
2022-09-10T10:35:35.916Z,21.55
2022-09-10T10:38:26.266Z,21.48
2022-09-10T10:41:09.625Z,21.62
2022-09-10T10:43:48.286Z,21.66
2022-09-10T10:46:23.380Z,21.77
2022-09-10T10:49:03.993Z,21.69
2022-09-10T10:51:42.965Z,21.64
2022-09-10T10:54:28.486Z,21.50
2022-09-10T10:57:06.413Z,21.47
2022-09-10T10:59:46.364Z,21.64
2022-09-10T11:02:21.687Z,21.78
2022-09-10T11:04:51.450Z,21.78
2022-09-10T11:07:23.353Z,21.64
2022-09-10T11:09:58.514Z,21.33
2022-09-10T11:12:31.966Z,21.05
2022-09-10T11:15:06.048Z,20.79
2022-09-10T11:17:39.354Z,20.55
2022-09-10T11:20:28.497Z,20.28
2022-09-10T11:23:05.363Z,20.04
2022-09-10T11:25:39.962Z,19.81
2022-09-10T11:28:14.583Z,19.64
2022-09-10T11:30:58.016Z,19.47
2022-09-10T11:33:34.725Z,19.38
2022-09-10T11:36:12.190Z,19.33
2022-09-10T11:38:50.484Z,19.32
2022-09-10T11:41:22.941Z,19.29
2022-09-10T11:43:58.174Z,19.28
2022-09-10T11:46:32.268Z,19.23
2022-09-10T11:49:06.209Z,19.22
2022-09-10T11:51:36.999Z,19.24
2022-09-10T11:54:07.274Z,19.24
2022-09-10T11:56:59.660Z,19.23
2022-09-10T11:59:54.195Z,19.18
2022-09-10T12:02:52.173Z,19.11
2022-09-10T12:05:27.698Z,19.07
2022-09-10T12:08:04.867Z,19.06
2022-09-10T12:10:36.527Z,19.04
2022-09-10T12:13:09.497Z,19.01
2022-09-10T12:15:38.704Z,18.96
2022-09-10T12:18:14.228Z,18.97
2022-09-10T12:20:49.646Z,19.08
2022-09-10T12:23:19.278Z,19.30
2022-09-10T12:25:57.800Z,19.41
2022-09-10T12:29:04.213Z,19.42
2022-09-10T12:32:05.164Z,19.41
2022-09-10T12:34:32.880Z,19.47
2022-09-10T12:37:28.084Z,19.60
2022-09-10T12:40:33.003Z,19.70
2022-09-10T12:43:21.464Z,19.84
2022-09-10T12:46:02.320Z,19.98
2022-09-10T12:48:30.567Z,20.04
2022-09-10T12:51:00.506Z,20.08
2022-09-10T12:54:07.926Z,20.09
2022-09-10T12:57:17.432Z,20.10
2022-09-10T13:00:13.129Z,20.19
2022-09-10T13:02:49.021Z,20.30
2022-09-10T13:05:25.627Z,20.35
2022-09-10T13:08:21.349Z,20.34
2022-09-10T13:11:16.512Z,20.41
2022-09-10T13:13:51.898Z,20.53
2022-09-10T13:16:38.227Z,20.64
2022-09-10T13:19:42.965Z,20.71
2022-09-10T13:22:55.205Z,20.71
2022-09-10T13:25:34.988Z,20.69
2022-09-10T13:28:12.443Z,20.62
2022-09-10T13:30:41.285Z,20.57
2022-09-10T13:33:17.702Z,20.55
2022-09-10T13:36:05.551Z,20.53
2022-09-10T13:38:54.486Z,20.51
2022-09-10T13:41:39.489Z,20.50
2022-09-10T13:44:26.727Z,20.49
2022-09-10T13:46:57.252Z,20.53
2022-09-10T13:49:32.853Z,20.57
2022-09-10T13:52:04.616Z,20.65
2022-09-10T13:54:35.526Z,20.72
2022-09-10T13:57:11.329Z,20.72
2022-09-10T13:59:42.549Z,20.73
2022-09-10T14:02:10.211Z,20.72
2022-09-10T14:04:43.121Z,20.72
2022-09-10T14:07:16.182Z,20.74
2022-09-10T14:09:46.224Z,20.78
2022-09-10T14:12:16.096Z,20.75
2022-09-10T14:14:48.795Z,20.69
2022-09-10T14:17:19.348Z,20.60
2022-09-10T14:19:51.644Z,20.57
2022-09-10T14:22:22.346Z,20.58
2022-09-10T14:24:53.965Z,20.52
2022-09-10T14:27:25.587Z,20.50
2022-09-10T14:29:56.447Z,20.50
2022-09-10T14:32:29.210Z,20.49
2022-09-10T14:34:57.337Z,20.45
2022-09-10T14:37:32.160Z,20.41
2022-09-10T14:40:05.749Z,20.35
2022-09-10T14:42:35.753Z,20.33
2022-09-10T14:45:05.884Z,20.32
2022-09-10T14:47:37.060Z,20.29
2022-09-10T14:50:28.207Z,20.29
2022-09-10T15:18:50.751Z,20.12
2022-09-10T15:21:55.692Z,20.07
2022-09-10T15:25:16.375Z,20.02
2022-09-10T15:27:57.227Z,20.01
2022-09-10T21:43:17.603Z,16.85
2022-09-10T22:50:14.703Z,16.76
